Time;durP1;ratioP1;P1;durP2;ratioP2;P2;SDS_P1;SDS_P2;PMS_P1;PMS_P2;Temp;Humidity;BMP_temperature;BMP_pressure;BME280_temperature;BME280_humidity;BME280_pressure;Samples;Min_cycle;Max_cycle;Signal;HPM_P1;HPM_P2
2023/03/15 00:02:24;;;;;;;9.53;2.30;;;;;;;1.89;100.00;99778.75;5009098;28;20323;-78
2023/03/15 00:04:53;;;;;;;11.67;2.73;;;;;;;2.10;100.00;99780.75;5013595;28;20882;-77
2023/03/15 00:07:24;;;;;;;8.23;2.43;;;;;;;1.96;100.00;99787.03;5011954;28;20182;-75
2023/03/15 00:09:49;;;;;;;6.27;2.23;;;;;;;1.80;100.00;99789.97;5014060;28;20670;-75
2023/03/15 00:12:15;;;;;;;12.73;2.63;;;;;;;1.66;100.00;99797.03;5037265;28;20229;-75
2023/03/15 00:14:40;;;;;;;6.47;2.07;;;;;;;1.67;100.00;99803.78;5034129;28;20185;-75
2023/03/15 00:17:05;;;;;;;9.03;2.63;;;;;;;1.58;100.00;99803.13;5039005;28;20727;-76
2023/03/15 00:19:31;;;;;;;6.90;2.40;;;;;;;1.47;100.00;99811.84;5033914;28;20196;-76
2023/03/15 00:21:56;;;;;;;6.23;2.10;;;;;;;1.47;100.00;99805.06;5037870;28;20238;-82
2023/03/15 00:24:21;;;;;;;4.30;2.10;;;;;;;1.41;100.00;99805.19;5048784;28;20216;-76
2023/03/15 00:26:46;;;;;;;6.30;2.30;;;;;;;1.38;100.00;99806.09;5033820;28;20184;-76
2023/03/15 00:29:12;;;;;;;8.37;2.30;;;;;;;1.21;100.00;99805.63;5049130;28;20189;-76
2023/03/15 00:31:37;;;;;;;7.10;2.70;;;;;;;1.14;100.00;99794.75;5015699;28;20685;-76
2023/03/15 00:34:02;;;;;;;10.53;2.47;;;;;;;1.10;100.00;99806.69;5036546;28;20199;-75
2023/03/15 00:36:27;;;;;;;7.00;2.43;;;;;;;1.07;100.00;99799.13;5034039;28;20567;-75
2023/03/15 00:38:55;;;;;;;10.10;2.53;;;;;;;1.04;100.00;99791.59;5033208;28;20190;-77
2023/03/15 00:41:21;;;;;;;5.93;2.50;;;;;;;0.90;100.00;99799.44;5025354;28;20672;-75
2023/03/15 00:43:46;;;;;;;12.30;3.13;;;;;;;0.86;100.00;99799.56;5026679;28;20174;-75
2023/03/15 00:46:13;;;;;;;6.37;2.53;;;;;;;0.91;100.00;99810.44;5033239;28;20286;-75
2023/03/15 00:48:38;;;;;;;7.37;3.07;;;;;;;0.88;100.00;99825.69;5031929;28;20267;-75
2023/03/15 00:51:07;;;;;;;9.63;2.13;;;;;;;0.70;100.00;99827.69;5031020;28;20304;-75
2023/03/15 00:53:34;;;;;;;8.17;2.23;;;;;;;0.75;100.00;99830.97;5031478;28;20187;-74
2023/03/15 00:56:09;;;;;;;7.43;2.17;;;;;;;0.68;100.00;99834.47;5031811;28;20182;-74
2023/03/15 00:58:34;;;;;;;9.53;2.70;;;;;;;0.59;100.00;99842.25;5031866;28;20262;-74
2023/03/15 01:01:03;;;;;;;7.20;2.60;;;;;;;0.62;100.00;99845.56;5015407;28;20230;-74
2023/03/15 01:03:29;;;;;;;6.37;2.63;;;;;;;0.69;100.00;99842.91;5029527;28;20225;-73
2023/03/15 01:05:54;;;;;;;9.63;2.37;;;;;;;0.57;100.00;99841.41;5032906;28;20172;-74
2023/03/15 01:08:19;;;;;;;8.83;2.63;;;;;;;0.48;100.00;99839.88;5032760;28;20183;-74
2023/03/15 01:10:44;;;;;;;5.73;2.47;;;;;;;0.40;100.00;99840.03;5028363;28;20275;-74
2023/03/15 01:13:10;;;;;;;11.70;2.30;;;;;;;0.42;100.00;99843.38;5031104;28;20181;-74
2023/03/15 01:15:35;;;;;;;6.33;2.10;;;;;;;0.50;100.00;99833.13;5032935;28;20633;-73
2023/03/15 01:18:00;;;;;;;7.70;2.73;;;;;;;0.43;100.00;99836.59;5032374;28;20186;-74
2023/03/15 01:20:25;;;;;;;5.27;2.23;;;;;;;0.41;100.00;99836.63;5025368;28;20239;-73
2023/03/15 01:22:51;;;;;;;12.50;2.40;;;;;;;0.41;100.00;99843.38;5044490;28;20183;-74
2023/03/15 01:25:16;;;;;;;13.47;2.53;;;;;;;0.43;100.00;99839.97;5032680;28;20222;-73
2023/03/15 01:27:42;;;;;;;10.47;2.60;;;;;;;0.50;100.00;99842.38;5032575;28;20183;-73
2023/03/15 01:30:07;;;;;;;4.40;1.87;;;;;;;0.44;100.00;99846.69;5022884;28;20270;-73
2023/03/15 01:32:33;;;;;;;10.13;2.77;;;;;;;0.44;100.00;99853.47;5046352;28;20233;-75
2023/03/15 01:34:58;;;;;;;10.67;2.60;;;;;;;0.31;100.00;99858.72;5032382;28;20174;-73
2023/03/15 01:37:25;;;;;;;10.00;2.27;;;;;;;0.34;100.00;99873.03;5032308;28;20186;-73
2023/03/15 01:39:51;;;;;;;5.77;2.30;;;;;;;0.30;100.00;99871.41;5031276;28;20175;-73
2023/03/15 01:42:16;;;;;;;8.53;2.70;;;;;;;0.34;100.00;99874.72;5036976;28;20307;-73
2023/03/15 01:44:55;;;;;;;13.70;2.70;;;;;;;0.13;100.00;99879.25;5032243;28;20666;-72
2023/03/15 01:47:24;;;;;;;6.70;2.83;;;;;;;0.15;100.00;99877.56;5031557;28;20178;-73
2023/03/15 01:49:57;;;;;;;7.27;2.40;;;;;;;0.13;100.00;99884.31;5032409;28;20191;-73
2023/03/15 01:52:29;;;;;;;7.20;2.20;;;;;;;0.09;100.00;99883.53;5020949;28;20233;-73
2023/03/15 01:55:00;;;;;;;4.10;2.40;;;;;;;-0.01;100.00;99879.47;5032149;28;20196;-74
2023/03/15 01:57:31;;;;;;;9.37;2.77;;;;;;;-0.20;100.00;99878.88;5030902;28;20186;-73
2023/03/15 02:00:10;;;;;;;11.67;2.90;;;;;;;-0.24;100.00;99885.66;5031981;28;20178;-73
2023/03/15 02:02:40;;;;;;;5.70;3.03;;;;;;;-0.17;100.00;99874.63;5019777;28;20241;-73
2023/03/15 02:05:10;;;;;;;7.20;2.67;;;;;;;-0.04;100.00;99876.97;5031873;28;20229;-73
2023/03/15 02:07:39;;;;;;;8.90;2.87;;;;;;;-0.03;100.00;99876.94;5030676;28;20185;-73
2023/03/15 02:10:09;;;;;;;7.50;3.20;;;;;;;-0.21;100.00;99874.66;5007046;28;20296;-79
2023/03/15 02:12:44;;;;;;;7.73;2.43;;;;;;;-0.23;100.00;99884.00;5045778;28;20194;-73
2023/03/15 02:15:10;;;;;;;6.93;2.30;;;;;;;-0.28;100.00;99881.50;5031683;28;20659;-73
2023/03/15 02:17:42;;;;;;;8.57;2.67;;;;;;;-0.21;100.00;99874.66;5031629;28;20269;-73
2023/03/15 02:20:28;;;;;;;14.73;4.90;;;;;;;-0.17;100.00;99877.13;5022032;28;20186;-73
2023/03/15 02:22:56;;;;;;;9.77;3.17;;;;;;;-0.19;100.00;99875.50;5043149;28;20188;-73
2023/03/15 02:26:00;;;;;;;5.53;2.37;;;;;;;-0.46;100.00;99879.22;5030506;28;20215;-73
2023/03/15 02:28:26;;;;;;;9.97;3.47;;;;;;;-0.58;100.00;99882.72;5028222;28;20301;-73
2023/03/15 02:30:52;;;;;;;5.33;2.73;;;;;;;-0.52;100.00;99878.44;5023060;28;20227;-74
2023/03/15 02:33:28;;;;;;;8.77;3.20;;;;;;;-0.58;100.00;99885.25;5029694;28;20185;-74
2023/03/15 02:35:55;;;;;;;6.77;2.97;;;;;;;-0.54;100.00;99887.72;5030378;28;20197;-74
2023/03/15 02:38:23;;;;;;;13.50;3.50;;;;;;;-0.53;100.00;99889.41;5030109;28;20270;-73
2023/03/15 02:40:52;;;;;;;4.97;3.07;;;;;;;-0.49;100.00;99891.03;5023215;28;20229;-74
2023/03/15 02:43:25;;;;;;;12.33;2.60;;;;;;;-0.47;100.00;99901.16;5029467;28;20264;-73
2023/03/15 02:45:51;;;;;;;8.70;3.10;;;;;;;-0.44;100.00;99910.38;5029998;28;20185;-73
2023/03/15 02:48:17;;;;;;;7.40;2.87;;;;;;;-0.40;100.00;99904.41;5029793;28;20186;-74
2023/03/15 02:50:42;;;;;;;9.90;3.03;;;;;;;-0.30;100.00;99908.50;5022833;28;20240;-73
2023/03/15 02:53:07;;;;;;;9.37;3.03;;;;;;;-0.20;100.00;99919.31;5041121;28;20192;-74
2023/03/15 02:55:33;;;;;;;6.40;3.03;;;;;;;-0.11;100.00;99914.16;5030124;28;20494;-74
2023/03/15 02:57:59;;;;;;;12.40;3.90;;;;;;;-0.06;100.00;99911.56;5031828;28;20694;-74
2023/03/15 03:00:25;;;;;;;10.07;3.03;;;;;;;-0.01;100.00;99907.28;5026435;28;20221;-73
2023/03/15 03:02:50;;;;;;;16.23;3.40;;;;;;;0.03;100.00;99916.50;5046856;28;20237;-73
2023/03/15 03:05:16;;;;;;;9.67;3.50;;;;;;;0.14;100.00;99923.94;5034163;28;20180;-73
2023/03/15 03:07:42;;;;;;;10.83;3.13;;;;;;;0.24;100.00;99922.94;5035114;28;20209;-73
2023/03/15 03:10:10;;;;;;;6.33;3.23;;;;;;;0.31;100.00;99924.50;5025347;28;20190;-73
2023/03/15 03:12:35;;;;;;;12.10;3.47;;;;;;;0.29;100.00;99933.00;5033165;28;20201;-73
2023/03/15 03:15:02;;;;;;;6.63;3.40;;;;;;;0.33;100.00;99937.13;5034970;28;20621;-73
2023/03/15 03:17:27;;;;;;;10.50;2.90;;;;;;;0.29;100.00;99938.06;5033607;28;20186;-73
2023/03/15 03:19:53;;;;;;;13.47;3.60;;;;;;;0.32;100.00;99932.94;5035184;28;20224;-73
2023/03/15 03:22:18;;;;;;;7.57;3.30;;;;;;;0.38;100.00;99942.13;5039371;28;20224;-76
2023/03/15 03:24:44;;;;;;;6.90;2.60;;;;;;;0.43;100.00;99938.66;5033630;28;20629;-73
2023/03/15 03:27:13;;;;;;;13.20;2.93;;;;;;;0.51;100.00;99937.72;5034739;28;20174;-75
2023/03/15 03:29:40;;;;;;;10.40;2.63;;;;;;;0.41;100.00;99944.59;5034825;28;20228;-73
2023/03/15 03:32:05;;;;;;;11.60;2.70;;;;;;;0.39;100.00;99949.69;5025386;28;20722;-74
2023/03/15 03:34:31;;;;;;;10.57;2.90;;;;;;;0.38;100.00;99949.72;5034894;28;20174;-73
2023/03/15 03:36:56;;;;;;;7.73;2.87;;;;;;;0.21;100.00;99945.75;5034588;28;20183;-72
2023/03/15 03:39:22;;;;;;;6.83;2.90;;;;;;;0.32;100.00;99953.16;5034787;28;20684;-73
2023/03/15 03:41:47;;;;;;;6.07;2.73;;;;;;;0.29;100.00;99954.06;5023160;28;20226;-72
2023/03/15 03:44:12;;;;;;;5.67;2.07;;;;;;;0.37;100.00;99946.34;5016290;28;20236;-73
2023/03/15 03:46:38;;;;;;;8.63;2.90;;;;;;;0.29;100.00;99949.00;5014530;28;20649;-74
2023/03/15 03:49:03;;;;;;;8.10;2.70;;;;;;;0.18;100.00;99942.44;5014945;28;20193;-74
2023/03/15 03:51:28;;;;;;;17.43;2.87;;;;;;;0.23;100.00;99938.97;5015300;28;20232;-75
2023/03/15 03:53:54;;;;;;;5.87;2.53;;;;;;;0.30;100.00;99937.19;5018617;28;20271;-74
2023/03/15 03:56:19;;;;;;;4.70;2.10;;;;;;;0.32;100.00;99941.38;5014192;28;20175;-74
2023/03/15 03:58:44;;;;;;;8.67;2.73;;;;;;;0.31;100.00;99943.91;5014503;28;20186;-73
2023/03/15 04:01:10;;;;;;;6.57;2.83;;;;;;;0.33;100.00;99944.72;5011765;28;20226;-76
2023/03/15 04:03:35;;;;;;;10.50;2.70;;;;;;;0.41;100.00;99950.53;5028016;28;20218;-72
2023/03/15 04:06:01;;;;;;;9.97;3.57;;;;;;;0.40;100.00;99964.03;5014117;28;20187;-73
2023/03/15 04:08:26;;;;;;;7.03;2.80;;;;;;;0.49;100.00;99970.63;5013729;28;20237;-73
2023/03/15 04:10:56;;;;;;;10.90;2.90;;;;;;;0.38;100.00;99977.56;5016769;28;20252;-73
2023/03/15 04:13:23;;;;;;;6.03;2.80;;;;;;;0.41;100.00;99975.81;5032156;28;20193;-73
2023/03/15 04:15:48;;;;;;;7.50;3.03;;;;;;;0.55;100.00;99979.84;5025464;28;20326;-74
2023/03/15 04:18:14;;;;;;;7.97;2.87;;;;;;;0.57;100.00;99976.44;5032239;28;20590;-74
2023/03/15 04:20:45;;;;;;;7.87;2.90;;;;;;;0.48;100.00;99979.09;5027719;28;20240;-73
2023/03/15 04:23:33;;;;;;;7.97;2.67;;;;;;;0.44;100.00;99975.75;5031296;28;20198;-73
2023/03/15 04:25:58;;;;;;;12.10;2.90;;;;;;;0.44;100.00;99977.47;5031247;28;20189;-74
2023/03/15 04:28:23;;;;;;;8.67;3.20;;;;;;;0.53;100.00;99968.91;5033920;28;20183;-74
2023/03/15 04:30:49;;;;;;;6.87;2.70;;;;;;;0.49;100.00;99973.16;5001791;28;20552;-73
2023/03/15 04:33:15;;;;;;;7.27;3.33;;;;;;;0.53;100.00;99973.97;5012131;28;20321;-72
2023/03/15 04:35:43;;;;;;;14.67;3.30;;;;;;;0.60;100.00;99978.06;5028545;28;20266;-73
2023/03/15 04:38:09;;;;;;;6.40;2.73;;;;;;;0.58;100.00;99967.13;5009903;28;20183;-75
2023/03/15 04:40:34;;;;;;;7.53;2.90;;;;;;;0.61;100.00;99977.22;5003594;28;20232;-73
2023/03/15 04:43:02;;;;;;;6.00;2.67;;;;;;;0.66;100.00;99975.44;5044302;28;20544;-73
2023/03/15 04:45:28;;;;;;;10.53;3.40;;;;;;;0.62;100.00;99973.81;5032010;28;20175;-72
2023/03/15 04:47:54;;;;;;;4.97;2.80;;;;;;;0.71;100.00;99967.75;5033563;28;20261;-74
2023/03/15 04:50:21;;;;;;;6.23;2.87;;;;;;;0.84;100.00;99973.47;5023795;28;20178;-73
2023/03/15 04:52:47;;;;;;;7.13;3.20;;;;;;;0.96;100.00;99975.81;5046061;28;20195;-73
2023/03/15 04:55:13;;;;;;;14.67;3.53;;;;;;;0.95;100.00;99971.59;5031839;28;20599;-73
2023/03/15 04:57:38;;;;;;;4.33;2.27;;;;;;;0.95;100.00;99974.97;5033485;28;20190;-75
2023/03/15 05:00:08;;;;;;;8.97;3.53;;;;;;;1.02;100.00;99970.63;5024673;28;20250;-73
2023/03/15 05:02:34;;;;;;;10.37;3.07;;;;;;;0.93;100.00;99970.78;5031003;28;20327;-73
2023/03/15 05:04:59;;;;;;;11.17;2.70;;;;;;;0.87;100.00;99978.47;5033121;28;20610;-74
2023/03/15 05:07:25;;;;;;;8.07;3.20;;;;;;;0.91;100.00;99975.88;5031679;28;20210;-74
2023/03/15 05:09:50;;;;;;;12.47;3.07;;;;;;;1.03;100.00;99971.47;5048186;28;20174;-74
2023/03/15 05:12:16;;;;;;;12.67;2.60;;;;;;;1.07;100.00;99968.84;5037298;28;20254;-74
2023/03/15 05:14:41;;;;;;;10.37;3.13;;;;;;;1.10;100.00;99971.34;5032882;28;20188;-74
2023/03/15 05:17:06;;;;;;;5.10;2.70;;;;;;;1.34;100.00;99978.53;5032929;28;20186;-74
2023/03/15 05:19:33;;;;;;;8.70;3.00;;;;;;;1.32;100.00;99982.81;5032639;28;20180;-72
2023/03/15 05:22:02;;;;;;;7.33;2.67;;;;;;;1.29;100.00;99976.91;5035866;28;20227;-75
2023/03/15 05:24:33;;;;;;;6.57;2.87;;;;;;;1.44;100.00;99988.47;5029794;28;20181;-73
2023/03/15 05:26:58;;;;;;;12.53;3.40;;;;;;;1.54;100.00;99999.28;5032878;28;20228;-74
2023/03/15 05:29:23;;;;;;;10.77;2.53;;;;;;;1.46;100.00;100006.16;5047809;28;20185;-72
2023/03/15 05:31:51;;;;;;;10.57;3.63;;;;;;;1.53;100.00;100000.13;5026286;28;20229;-73
2023/03/15 05:34:17;;;;;;;8.20;2.23;;;;;;;1.62;100.00;100001.66;5013323;28;20174;-73
2023/03/15 05:36:42;;;;;;;7.17;2.50;;;;;;;1.68;100.00;99996.47;5027742;28;20193;-73
2023/03/15 05:39:08;;;;;;;8.77;3.00;;;;;;;1.61;100.00;99999.97;5012401;28;20181;-73
2023/03/15 05:41:33;;;;;;;13.47;2.97;;;;;;;1.65;100.00;100005.81;5026851;28;20232;-74
2023/03/15 05:43:58;;;;;;;7.00;2.70;;;;;;;1.72;100.00;100010.75;5035577;28;20496;-74
2023/03/15 05:46:24;;;;;;;8.30;2.70;;;;;;;1.72;100.00;100015.81;5032632;28;20174;-73
2023/03/15 05:48:49;;;;;;;9.40;2.87;;;;;;;1.73;100.00;100020.03;5032030;28;20180;-73
2023/03/15 05:51:15;;;;;;;10.73;2.80;;;;;;;1.83;100.00;100019.88;5020322;28;20252;-72
2023/03/15 05:53:40;;;;;;;6.90;2.40;;;;;;;1.73;100.00;100021.75;5017758;28;20214;-73
2023/03/15 05:56:06;;;;;;;5.67;2.90;;;;;;;1.90;100.00;100029.03;5012312;28;20189;-74
2023/03/15 05:58:32;;;;;;;8.87;2.63;;;;;;;1.94;100.00;100028.09;5010781;28;20240;-74
2023/03/15 06:00:57;;;;;;;9.23;2.80;;;;;;;1.99;100.00;100033.09;5016950;28;20243;-73
2023/03/15 06:03:22;;;;;;;17.10;3.10;;;;;;;2.09;100.00;100030.31;5029843;28;20321;-73
2023/03/15 06:05:48;;;;;;;8.33;2.50;;;;;;;2.15;100.00;100039.50;5030745;28;20588;-73
2023/03/15 06:08:13;;;;;;;6.10;2.33;;;;;;;2.06;100.00;100042.22;5031703;28;20192;-74
2023/03/15 06:10:38;;;;;;;4.90;2.37;;;;;;;2.19;100.00;100041.09;5020029;28;20227;-76
2023/03/15 06:13:04;;;;;;;7.27;2.47;;;;;;;2.15;100.00;100038.69;5022194;28;20678;-75
2023/03/15 06:15:29;;;;;;;11.60;3.47;;;;;;;2.06;100.00;100050.69;5012106;28;20182;-75
2023/03/15 06:17:55;;;;;;;12.20;3.30;;;;;;;2.18;100.00;100052.13;5011706;28;20182;-74
2023/03/15 06:20:20;;;;;;;6.37;2.77;;;;;;;2.17;100.00;100057.22;5021567;28;20193;-74
2023/03/15 06:22:45;;;;;;;6.93;2.93;;;;;;;2.08;100.00;100060.78;5044320;28;20180;-72
2023/03/15 06:25:10;;;;;;;11.70;4.50;;;;;;;2.01;100.00;100066.84;5031919;28;20181;-73
2023/03/15 06:27:38;;;;;;;6.50;2.80;;;;;;;2.09;100.00;100058.22;5031484;28;20176;-73
2023/03/15 06:30:04;;;;;;;7.27;3.50;;;;;;;2.04;100.00;100069.34;5022773;28;20193;-72
2023/03/15 06:32:29;;;;;;;10.17;3.93;;;;;;;1.99;100.00;100071.97;5045566;28;20734;-73
2023/03/15 06:34:54;;;;;;;5.70;2.87;;;;;;;2.01;100.00;100066.84;5031543;28;20186;-75
2023/03/15 06:37:20;;;;;;;8.17;3.63;;;;;;;1.99;100.00;100066.06;5031184;28;20177;-73
2023/03/15 06:39:46;;;;;;;9.97;3.70;;;;;;;2.09;100.00;100063.28;5046847;28;20231;-74
2023/03/15 06:42:12;;;;;;;8.07;3.87;;;;;;;2.15;100.00;100064.88;5035991;28;20581;-74
2023/03/15 06:44:42;;;;;;;7.47;3.33;;;;;;;2.16;100.00;100058.09;5031681;28;20188;-74
2023/03/15 06:47:09;;;;;;;8.87;3.77;;;;;;;2.33;100.00;100056.06;5031131;28;20552;-73
2023/03/15 06:49:35;;;;;;;7.93;3.83;;;;;;;2.24;100.00;100054.53;5031274;28;20193;-74
2023/03/15 06:52:01;;;;;;;6.67;4.10;;;;;;;2.27;100.00;100053.66;5021846;28;20219;-74
2023/03/15 06:54:27;;;;;;;8.77;3.57;;;;;;;2.23;100.00;100052.88;5031667;28;20215;-74
2023/03/15 06:56:52;;;;;;;10.13;4.00;;;;;;;2.15;100.00;100054.72;5031073;28;20174;-74
2023/03/15 06:59:17;;;;;;;8.30;3.67;;;;;;;2.10;100.00;100056.53;5029994;28;20190;-74
2023/03/15 07:01:43;;;;;;;14.43;5.07;;;;;;;2.07;100.00;100066.72;5034030;28;20594;-74
2023/03/15 07:04:08;;;;;;;9.90;4.80;;;;;;;2.01;100.00;100067.69;5029056;28;20306;-74
2023/03/15 07:06:34;;;;;;;9.40;4.03;;;;;;;2.05;100.00;100074.38;5030603;28;20187;-74
2023/03/15 07:08:59;;;;;;;8.30;4.50;;;;;;;2.12;100.00;100080.16;5030038;28;20197;-74
2023/03/15 07:11:25;;;;;;;6.47;3.40;;;;;;;2.29;100.00;100084.06;5031650;28;20280;-74
2023/03/15 07:13:50;;;;;;;7.53;3.70;;;;;;;3.22;100.00;100080.28;5034705;28;20177;-73
2023/03/15 07:16:16;;;;;;;7.40;3.60;;;;;;;3.70;100.00;100079.09;5045250;28;20195;-62
2023/03/15 07:18:41;;;;;;;12.83;3.60;;;;;;;3.52;100.00;100083.78;5030978;28;20479;-74
2023/03/15 07:21:07;;;;;;;15.30;3.57;;;;;;;3.15;100.00;100094.88;5027925;28;20228;-72
2023/03/15 07:23:32;;;;;;;10.80;3.40;;;;;;;2.95;100.00;100102.94;5037935;28;20206;-73
2023/03/15 07:25:58;;;;;;;7.07;3.50;;;;;;;3.04;100.00;100107.00;5030561;28;20178;-74
2023/03/15 07:28:25;;;;;;;8.30;2.90;;;;;;;3.03;100.00;100107.88;5029129;28;20200;-74
2023/03/15 07:30:59;;;;;;;6.47;2.80;;;;;;;2.97;100.00;100113.09;5022208;28;20629;-73
2023/03/15 07:33:26;;;;;;;6.87;3.03;;;;;;;2.90;100.00;100117.44;5038218;28;20193;-74
2023/03/15 07:35:52;;;;;;;5.97;2.80;;;;;;;2.90;100.00;100113.22;5029536;28;20183;-73
2023/03/15 07:38:19;;;;;;;5.70;3.33;;;;;;;2.92;100.00;100117.44;5017855;28;20195;-74
2023/03/15 07:40:45;;;;;;;7.33;3.57;;;;;;;3.32;100.00;100117.31;5031047;28;20225;-73
2023/03/15 07:43:10;;;;;;;6.37;2.90;;;;;;;3.52;100.00;100116.00;5025675;28;20275;-74
2023/03/15 07:45:36;;;;;;;9.63;2.60;;;;;;;3.69;100.00;100115.56;5013981;28;20183;-73
2023/03/15 07:48:01;;;;;;;10.60;3.07;;;;;;;3.53;100.00;100115.13;5014373;28;20194;-74
2023/03/15 07:50:26;;;;;;;4.47;2.73;;;;;;;3.71;100.00;100118.94;5010434;28;20229;-73
2023/03/15 07:52:52;;;;;;;5.43;2.90;;;;;;;3.72;100.00;100126.50;5032644;28;20180;-73
2023/03/15 07:55:17;;;;;;;4.73;2.80;;;;;;;3.53;100.00;100125.31;5034178;28;20587;-72
2023/03/15 07:57:42;;;;;;;5.50;2.80;;;;;;;3.50;100.00;100136.38;5049518;28;20197;-73
2023/03/15 08:00:10;;;;;;;4.17;2.40;;;;;;;3.53;100.00;100138.03;5013880;28;20285;-73
2023/03/15 08:02:36;;;;;;;6.87;3.00;;;;;;;3.39;100.00;100141.72;5048000;28;20285;-74
2023/03/15 08:05:02;;;;;;;7.10;2.87;;;;;;;3.48;100.00;100145.75;5034070;28;20497;-73
2023/03/15 08:07:28;;;;;;;7.13;3.20;;;;;;;3.75;100.00;100145.13;5034256;28;20181;-74
2023/03/15 08:09:53;;;;;;;6.83;2.80;;;;;;;3.70;100.00;100150.31;5032598;28;20190;-73
2023/03/15 08:12:19;;;;;;;6.60;3.07;;;;;;;3.72;100.00;100148.56;5040152;28;20217;-72
2023/03/15 08:14:45;;;;;;;7.87;3.20;;;;;;;3.84;100.00;100150.78;5033361;28;20174;-73
2023/03/15 08:17:11;;;;;;;4.10;2.67;;;;;;;3.87;100.00;100147.34;5039597;28;20279;-74
2023/03/15 08:19:37;;;;;;;8.70;3.27;;;;;;;3.59;100.00;100157.41;5032618;28;20675;-73
2023/03/15 08:22:03;;;;;;;7.90;3.00;;;;;;;3.55;100.00;100154.91;5037829;28;20229;-74
2023/03/15 08:24:28;;;;;;;8.37;3.37;;;;;;;3.72;100.00;100166.38;5033596;28;20187;-76
2023/03/15 08:26:53;;;;;;;7.27;2.97;;;;;;;3.67;100.00;100161.41;5033801;28;20186;-74
2023/03/15 08:29:19;;;;;;;7.17;2.83;;;;;;;3.60;100.00;100164.97;5033085;28;20190;-73
2023/03/15 08:31:44;;;;;;;9.17;3.30;;;;;;;3.63;100.00;100164.88;5025283;27;20237;-75
2023/03/15 08:34:10;;;;;;;8.17;3.77;;;;;;;3.64;100.00;100166.56;5027841;28;20193;-74
2023/03/15 08:36:36;;;;;;;5.87;2.90;;;;;;;3.84;100.00;100171.16;5013697;28;20253;-75
2023/03/15 08:39:04;;;;;;;3.53;2.77;;;;;;;4.33;100.00;100178.38;5013588;28;20258;-74
2023/03/15 08:41:29;;;;;;;7.23;3.00;;;;;;;4.74;100.00;100175.53;5017270;28;20731;-75
2023/03/15 08:43:54;;;;;;;8.10;3.03;;;;;;;4.89;100.00;100179.34;5021907;28;20191;-73
2023/03/15 08:46:20;;;;;;;4.20;2.23;;;;;;;4.79;100.00;100186.44;5011736;28;20202;-77
2023/03/15 08:48:46;;;;;;;7.17;3.57;;;;;;;4.38;100.00;100190.97;5012090;28;20201;-75
2023/03/15 08:51:12;;;;;;;6.07;3.57;;;;;;;4.26;100.00;100194.72;5020181;28;20753;-75
2023/03/15 08:53:37;;;;;;;6.13;3.47;;;;;;;4.17;100.00;100198.34;5019395;28;20186;-75
2023/03/15 08:56:03;;;;;;;5.67;3.53;;;;;;;4.26;100.00;100204.88;5012947;28;20183;-74
2023/03/15 08:58:29;;;;;;;5.67;3.23;;;;;;;4.43;100.00;100210.38;5013296;28;20242;-75
2023/03/15 09:00:56;;;;;;;6.67;3.73;;;;;;;4.59;100.00;100205.69;5016838;28;20628;-75
2023/03/15 09:03:21;;;;;;;8.10;3.30;;;;;;;4.68;100.00;100209.69;5021002;28;20252;-75
2023/03/15 09:05:47;;;;;;;4.53;3.10;;;;;;;5.07;100.00;100204.28;5013494;28;20257;-77
2023/03/15 09:08:13;;;;;;;6.07;3.37;;;;;;;5.70;100.00;100210.88;5044637;28;20183;-75
2023/03/15 09:10:38;;;;;;;4.53;2.87;;;;;;;5.98;100.00;100209.09;5018168;28;20371;-73
2023/03/15 09:13:03;;;;;;;4.87;3.00;;;;;;;5.95;100.00;100210.88;5022185;28;20656;-74
2023/03/15 09:15:29;;;;;;;5.27;2.67;;;;;;;5.42;100.00;100219.38;5012976;28;20190;-73
2023/03/15 09:17:54;;;;;;;3.27;2.70;;;;;;;5.50;100.00;100222.53;5011605;28;20191;-74
2023/03/15 09:20:21;;;;;;;3.53;2.80;;;;;;;5.73;100.00;100219.25;5003852;28;20180;-76
2023/03/15 09:22:53;;;;;;;3.00;2.57;;;;;;;5.94;100.00;100217.72;5011293;28;20288;-72
2023/03/15 09:25:19;;;;;;;4.97;3.20;;;;;;;6.43;100.00;100222.88;5012523;28;20190;-73
2023/03/15 09:27:44;;;;;;;3.63;2.70;;;;;;;6.76;100.00;100229.38;5011241;28;20178;-73
2023/03/15 09:30:10;;;;;;;4.33;2.50;;;;;;;6.52;100.00;100219.16;5014579;28;20536;-74
2023/03/15 09:32:35;;;;;;;6.20;3.27;;;;;;;6.00;100.00;100231.19;5034354;28;20592;-73
2023/03/15 09:35:07;;;;;;;4.67;2.53;;;;;;;5.98;100.00;100233.78;5012543;28;20201;-72
2023/03/15 09:37:33;;;;;;;3.73;2.07;;;;;;;6.17;100.00;100239.13;5044404;28;20629;-74
2023/03/15 09:39:58;;;;;;;5.13;2.13;;;;;;;6.95;100.00;100252.56;5011101;28;20201;-72
2023/03/15 09:42:50;;;;;;;4.67;2.40;;;;;;;6.77;100.00;100249.81;5016963;28;20682;-74
2023/03/15 09:45:23;;;;;;;5.57;2.17;;;;;;;6.22;100.00;100247.44;5012473;28;20222;-74
2023/03/15 09:47:59;;;;;;;2.57;2.00;;;;;;;6.19;100.00;100254.38;5027805;28;20183;-74
2023/03/15 09:50:30;;;;;;;2.83;2.17;;;;;;;6.78;100.00;100255.75;5023087;28;20242;-73
2023/03/15 09:53:10;;;;;;;3.30;1.93;;;;;;;6.96;100.00;100256.81;5029876;28;20675;-74
2023/03/15 09:55:38;;;;;;;4.00;1.90;;;;;;;7.31;100.00;100264.88;5017112;28;20215;-73
2023/03/15 09:58:11;;;;;;;3.17;1.80;;;;;;;7.26;100.00;100265.03;5026857;28;20256;-76
2023/03/15 10:00:42;;;;;;;2.53;1.87;;;;;;;7.48;100.00;100261.66;5009335;28;20688;-75
2023/03/15 10:03:34;;;;;;;3.08;1.90;;;;;;;7.66;100.00;100254.16;5008855;28;20443;-78
2023/03/15 10:06:15;;;;;;;2.10;1.63;;;;;;;7.61;100.00;100262.00;5012333;28;20280;-75
2023/03/15 10:08:40;;;;;;;2.03;1.50;;;;;;;7.96;100.00;100259.72;5000314;28;20187;-74
2023/03/15 10:11:41;;;;;;;2.07;1.30;;;;;;;6.62;100.00;100261.41;5010161;28;20236;-77
2023/03/15 10:14:17;;;;;;;4.60;1.90;;;;;;;6.22;100.00;100267.88;5043661;28;20186;-76
2023/03/15 10:16:47;;;;;;;2.30;1.50;;;;;;;5.94;100.00;100270.50;5030561;28;20649;-76
2023/03/15 10:19:46;;;;;;;4.13;2.13;;;;;;;5.58;100.00;100278.44;5031497;28;20292;-77
2023/03/15 10:22:11;;;;;;;3.60;1.90;;;;;;;5.16;100.00;100279.69;5018040;28;20224;-76
2023/03/15 10:24:53;;;;;;;3.10;1.90;;;;;;;4.55;100.00;100279.69;5027647;28;20276;-76
2023/03/15 10:27:33;;;;;;;2.73;2.17;;;;;;;4.27;100.00;100278.69;5022413;28;20202;-76
2023/03/15 10:30:00;;;;;;;3.30;1.73;;;;;;;4.25;100.00;100290.63;5010442;28;20777;-78
2023/03/15 10:32:29;;;;;;;2.40;2.20;;;;;;;3.96;100.00;100291.34;5016107;28;20224;-76
2023/03/15 10:34:57;;;;;;;1.90;1.80;;;;;;;3.94;100.00;100285.47;5010250;28;20188;-75
2023/03/15 10:37:24;;;;;;;2.17;1.90;;;;;;;4.22;100.00;100290.72;5010003;28;20216;-75
2023/03/15 10:39:57;;;;;;;4.07;2.20;;;;;;;4.03;100.00;100287.75;5010485;28;20619;-76
2023/03/15 10:42:31;;;;;;;2.10;1.80;;;;;;;3.59;100.00;100290.50;5016162;28;20280;-76
2023/03/15 10:44:59;;;;;;;3.70;2.30;;;;;;;3.97;100.00;100291.31;5011462;28;20183;-76
2023/03/15 10:47:26;;;;;;;2.27;2.13;;;;;;;4.32;100.00;100278.59;5010295;28;20673;-76
2023/03/15 10:49:57;;;;;;;2.13;1.80;;;;;;;4.76;100.00;100275.72;5007819;28;20175;-77
2023/03/15 10:52:37;;;;;;;3.20;1.87;;;;;;;4.93;100.00;100273.53;5004309;28;20232;-76
2023/03/15 10:55:06;;;;;;;3.83;2.40;;;;;;;4.71;100.00;100275.00;5026223;28;20703;-77
2023/03/15 10:57:35;;;;;;;2.60;2.40;;;;;;;4.76;100.00;100273.16;5025685;28;20226;-75
2023/03/15 11:00:17;;;;;;;4.80;2.60;;;;;;;4.40;100.00;100273.28;5010093;28;20229;-76
2023/03/15 11:02:50;;;;;;;4.00;2.23;;;;;;;4.53;100.00;100274.63;5000213;28;20664;-74
2023/03/15 11:05:17;;;;;;;4.83;2.57;;;;;;;4.74;100.00;100267.25;5029851;28;20183;-76
2023/03/15 11:07:58;;;;;;;4.93;3.00;;;;;;;4.83;100.00;100270.41;5042966;28;20377;-78
2023/03/15 11:10:26;;;;;;;2.30;2.10;;;;;;;5.33;100.00;100269.81;5016149;28;20282;-76
2023/03/15 11:13:27;;;;;;;2.30;1.93;;;;;;;5.56;100.00;100275.13;5003552;28;20208;-75
2023/03/15 11:16:00;;;;;;;2.33;2.13;;;;;;;5.98;100.00;100272.94;5008372;28;20632;-77
2023/03/15 11:18:42;;;;;;;2.03;1.80;;;;;;;6.26;100.00;100273.72;5009609;28;20197;-77
2023/03/15 11:21:13;;;;;;;1.87;1.77;;;;;;;6.48;100.00;100268.72;5023356;28;20239;-78
2023/03/15 11:23:43;;;;;;;1.80;1.70;;;;;;;6.64;100.00;100261.34;5013472;28;20190;-78
2023/03/15 11:26:33;;;;;;;1.50;1.40;;;;;;;7.00;100.00;100270.31;5030279;28;20237;-79
2023/03/15 11:29:16;;;;;;;2.03;1.80;;;;;;;6.79;100.00;100280.41;5014170;28;20183;-79
2023/03/15 11:31:42;;;;;;;2.27;2.07;;;;;;;6.18;100.00;100286.78;5021372;28;20620;-80